Terminal Aerodrome Forecast
Issued by NWS Boston, MA

Home | Current Version | Previous Version | Text Only | Print | Product List | Glossary On
Versions: 1 2 3 4 5 6 7 8 9 10 11 12 13 14 15 16 17 18 19 20 21 22 23 24 25 26 27 28 29 30 31 32 33 34 35 36 37 38 39 40 41 42 43 44 45 46 47 48 49 50
000
FTUS41 KBOX 151120
TAFPVD
TAF
KPVD 151120Z 1512/1612 21006KT P6SM SCT200
     FM152200 VRB03KT P6SM OVC025
     FM152300 VRB03KT P6SM VCSH OVC025
     FM160000 VRB03KT 2SM -SN OVC008
     FM160400 30005KT P6SM VCSH OVC008
     FM160500 30006KT P6SM VCSH BKN020
     FM160600 29006KT P6SM BKN045
     FM161000 28007G17KT P6SM SCT080=

USA.gov is the U.S. government's official web portal to all federal, state and local government web resources and services.